Time;durP1;ratioP1;P1;durP2;ratioP2;P2;SDS_P1;SDS_P2;PMS_P1;PMS_P2;Temp;Humidity;BMP_temperature;BMP_pressure;BME280_temperature;BME280_humidity;BME280_pressure;Samples;Min_cycle;Max_cycle;Signal;HPM_P1;HPM_P2
2022/09/18 00:01:57;;;;;;;6.90;1.45;;;;;;;;;;6159771;23;20980;-76
2022/09/18 00:04:23;;;;;;;11.70;2.33;;;;;;;;;;6159827;23;20033;-74
2022/09/18 00:06:49;;;;;;;6.55;1.60;;;;;;;;;;6160422;23;20022;-74
2022/09/18 00:09:16;;;;;;;8.27;1.67;;;;;;;;;;6160085;23;20029;-74
2022/09/18 00:11:43;;;;;;;11.55;1.70;;;;;;;;;;6159759;23;20029;-73
2022/09/18 00:14:11;;;;;;;9.30;1.48;;;;;;;;;;6159888;23;20032;-74
2022/09/18 00:16:38;;;;;;;5.90;1.45;;;;;;;;;;6159949;23;20037;-72
2022/09/18 00:19:05;;;;;;;7.35;1.45;;;;;;;;;;6160095;23;20105;-73
2022/09/18 00:21:36;;;;;;;8.13;1.48;;;;;;;;;;6160129;23;20036;-74
2022/09/18 00:24:03;;;;;;;6.20;1.40;;;;;;;;;;6159612;23;20026;-74
2022/09/18 00:26:29;;;;;;;11.75;2.17;;;;;;;;;;6159863;23;20465;-74
2022/09/18 00:28:56;;;;;;;6.28;1.10;;;;;;;;;;6160306;23;20026;-75
2022/09/18 00:31:24;;;;;;;10.60;1.63;;;;;;;;;;6159885;23;20033;-75
2022/09/18 00:33:51;;;;;;;8.13;1.63;;;;;;;;;;6159921;23;20077;-74
2022/09/18 00:36:18;;;;;;;5.78;1.27;;;;;;;;;;6159991;23;20089;-74
2022/09/18 00:38:45;;;;;;;5.75;1.10;;;;;;;;;;6160051;23;20101;-75
2022/09/18 00:41:13;;;;;;;7.07;1.58;;;;;;;;;;6160207;23;20502;-74
2022/09/18 00:43:39;;;;;;;10.32;1.42;;;;;;;;;;6158392;23;20081;-77
2022/09/18 00:46:22;;;;;;;7.07;1.52;;;;;;;;;;6159918;23;20029;-76
2022/09/18 00:49:01;;;;;;;5.93;1.08;;;;;;;;;;6159838;23;20081;-75
2022/09/18 00:51:29;;;;;;;9.02;1.45;;;;;;;;;;6160447;23;20070;-75
2022/09/18 00:54:22;;;;;;;5.53;1.05;;;;;;;;;;6159922;23;20081;-75
2022/09/18 00:56:49;;;;;;;12.57;1.98;;;;;;;;;;6155306;23;20081;-76
2022/09/18 00:59:18;;;;;;;6.03;1.73;;;;;;;;;;6160100;23;20037;-75
2022/09/18 01:01:44;;;;;;;9.02;1.42;;;;;;;;;;6160075;23;20030;-75
2022/09/18 01:04:11;;;;;;;8.15;1.40;;;;;;;;;;6160152;23;20030;-74
2022/09/18 01:06:40;;;;;;;7.75;1.90;;;;;;;;;;6159822;23;20085;-75
2022/09/18 01:09:17;;;;;;;10.43;2.20;;;;;;;;;;6159890;23;20085;-75
2022/09/18 01:11:57;;;;;;;6.25;1.40;;;;;;;;;;6160784;23;20476;-74
2022/09/18 01:14:35;;;;;;;3.45;1.17;;;;;;;;;;6160590;23;20514;-76
2022/09/18 01:17:11;;;;;;;3.22;1.05;;;;;;;;;;6161105;23;20077;-77
2022/09/18 01:19:56;;;;;;;4.93;1.17;;;;;;;;;;6161096;23;20518;-74
2022/09/18 01:22:50;;;;;;;9.23;1.47;;;;;;;;;;6160940;23;20609;-76
2022/09/18 01:25:25;;;;;;;3.83;0.75;;;;;;;;;;6160801;23;21198;-77
2022/09/18 01:28:01;;;;;;;6.78;1.35;;;;;;;;;;6160644;23;20872;-77
2022/09/18 01:30:28;;;;;;;6.95;1.05;;;;;;;;;;6160938;23;20033;-75
2022/09/18 01:33:05;;;;;;;8.07;1.40;;;;;;;;;;6160816;23;20077;-75
2022/09/18 01:35:38;;;;;;;6.78;1.40;;;;;;;;;;6160847;23;20026;-76
2022/09/18 01:38:11;;;;;;;8.23;1.67;;;;;;;;;;6161652;23;20026;-76
2022/09/18 01:40:41;;;;;;;7.47;1.20;;;;;;;;;;6159057;23;20065;-74
2022/09/18 01:43:09;;;;;;;7.22;2.13;;;;;;;;;;6160691;23;20558;-74
2022/09/18 01:45:40;;;;;;;6.82;1.60;;;;;;;;;;6160717;23;20109;-76
2022/09/18 01:48:06;;;;;;;5.88;1.40;;;;;;;;;;6161042;23;20038;-75
2022/09/18 01:50:34;;;;;;;7.47;1.30;;;;;;;;;;6160853;23;20029;-74
2022/09/18 01:53:16;;;;;;;3.80;1.00;;;;;;;;;;6160715;23;20025;-76
2022/09/18 01:55:45;;;;;;;7.18;1.50;;;;;;;;;;6161008;23;20033;-74
2022/09/18 01:58:16;;;;;;;5.88;1.30;;;;;;;;;;6161135;23;20030;-75
2022/09/18 02:00:45;;;;;;;6.65;1.20;;;;;;;;;;6160588;23;20491;-75
2022/09/18 02:03:13;;;;;;;9.70;1.42;;;;;;;;;;6160733;23;20030;-74
2022/09/18 02:05:45;;;;;;;5.55;1.23;;;;;;;;;;6160104;23;20030;-74
2022/09/18 02:08:17;;;;;;;6.68;1.45;;;;;;;;;;6160596;23;20105;-74
2022/09/18 02:10:46;;;;;;;5.03;1.10;;;;;;;;;;6160756;23;20995;-74
2022/09/18 02:13:15;;;;;;;13.25;3.00;;;;;;;;;;6160996;23;20022;-74
2022/09/18 02:15:42;;;;;;;9.80;2.42;;;;;;;;;;6160428;23;20034;-74
2022/09/18 02:18:11;;;;;;;5.03;1.20;;;;;;;;;;6160332;23;20030;-73
2022/09/18 02:20:40;;;;;;;6.45;1.98;;;;;;;;;;6160669;23;20037;-74
2022/09/18 02:23:06;;;;;;;9.07;1.80;;;;;;;;;;6160287;23;20081;-75
2022/09/18 02:25:40;;;;;;;7.40;1.35;;;;;;;;;;6160470;23;20081;-73
2022/09/18 02:28:08;;;;;;;6.80;1.30;;;;;;;;;;6159139;23;20030;-73
2022/09/18 02:30:36;;;;;;;3.42;0.85;;;;;;;;;;6160218;23;20026;-77
2022/09/18 02:33:02;;;;;;;9.85;1.45;;;;;;;;;;6160372;23;20030;-75
2022/09/18 02:35:36;;;;;;;6.43;1.20;;;;;;;;;;6160607;23;20034;-77
2022/09/18 02:38:18;;;;;;;11.68;1.60;;;;;;;;;;6160936;23;20507;-77
2022/09/18 02:40:51;;;;;;;2.97;1.05;;;;;;;;;;6160237;23;20502;-76
2022/09/18 02:43:29;;;;;;;5.32;1.10;;;;;;;;;;6160854;23;20026;-74
2022/09/18 02:46:06;;;;;;;4.97;1.25;;;;;;;;;;6160418;23;20030;-74
2022/09/18 02:48:51;;;;;;;4.30;1.38;;;;;;;;;;6160653;23;20524;-75
2022/09/18 02:51:30;;;;;;;9.43;2.47;;;;;;;;;;6160428;23;20947;-74
2022/09/18 02:54:21;;;;;;;6.18;0.93;;;;;;;;;;6160555;23;20483;-75
2022/09/18 02:57:02;;;;;;;6.35;1.17;;;;;;;;;;6159949;23;20400;-75
2022/09/18 02:59:44;;;;;;;9.68;1.30;;;;;;;;;;6160195;23;20467;-74
2022/09/18 03:02:10;;;;;;;9.85;1.42;;;;;;;;;;6160597;23;20030;-74
2022/09/18 03:04:37;;;;;;;4.38;0.95;;;;;;;;;;6160188;23;20450;-74
2022/09/18 03:07:03;;;;;;;7.88;1.17;;;;;;;;;;6161147;23;20022;-73
2022/09/18 03:09:31;;;;;;;10.35;1.33;;;;;;;;;;6160400;23;20463;-75
2022/09/18 03:11:57;;;;;;;9.27;1.73;;;;;;;;;;6160270;23;20030;-74
2022/09/18 03:14:23;;;;;;;10.18;2.40;;;;;;;;;;6160454;23;20048;-75
2022/09/18 03:16:50;;;;;;;5.38;1.10;;;;;;;;;;6160228;23;20034;-75
2022/09/18 03:19:16;;;;;;;5.82;1.08;;;;;;;;;;6160289;23;20029;-75
2022/09/18 03:21:42;;;;;;;5.53;1.45;;;;;;;;;;6159642;23;20049;-72
2022/09/18 03:24:09;;;;;;;6.10;1.42;;;;;;;;;;6159990;23;20472;-73
2022/09/18 03:26:35;;;;;;;6.57;1.40;;;;;;;;;;6159733;23;20519;-72
2022/09/18 03:29:01;;;;;;;4.13;0.90;;;;;;;;;;6160042;23;20033;-72
2022/09/18 03:31:28;;;;;;;7.35;1.42;;;;;;;;;;6159689;23;20034;-71
2022/09/18 03:33:54;;;;;;;6.13;1.40;;;;;;;;;;6159250;23;20036;-73
2022/09/18 03:36:20;;;;;;;6.05;1.13;;;;;;;;;;6159223;23;20034;-72
2022/09/18 03:38:47;;;;;;;5.55;1.27;;;;;;;;;;6159315;23;20029;-73
2022/09/18 03:41:13;;;;;;;6.95;1.33;;;;;;;;;;6159338;23;20025;-73
2022/09/18 03:43:39;;;;;;;4.00;1.20;;;;;;;;;;6159522;23;20037;-74
2022/09/18 03:46:05;;;;;;;6.45;1.33;;;;;;;;;;6159627;23;20536;-73
2022/09/18 03:48:32;;;;;;;4.82;1.40;;;;;;;;;;6158721;23;20109;-74
2022/09/18 03:50:58;;;;;;;4.80;1.30;;;;;;;;;;6160591;23;20034;-74
2022/09/18 03:53:24;;;;;;;3.88;1.25;;;;;;;;;;6159909;23;20022;-74
2022/09/18 03:55:51;;;;;;;6.88;0.88;;;;;;;;;;6159586;23;20337;-74
2022/09/18 03:58:17;;;;;;;6.30;1.67;;;;;;;;;;6160441;23;20029;-72
2022/09/18 04:00:44;;;;;;;7.13;1.23;;;;;;;;;;6159097;23;20030;-73
2022/09/18 04:03:10;;;;;;;5.72;2.08;;;;;;;;;;6159991;23;20037;-73
2022/09/18 04:05:36;;;;;;;5.75;1.33;;;;;;;;;;6159847;23;20559;-73
2022/09/18 04:08:04;;;;;;;3.78;1.20;;;;;;;;;;6159611;23;20057;-74
2022/09/18 04:10:31;;;;;;;6.07;1.73;;;;;;;;;;6159740;23;20041;-73
2022/09/18 04:12:57;;;;;;;6.78;1.63;;;;;;;;;;6159311;23;20085;-71
2022/09/18 04:15:23;;;;;;;4.63;1.40;;;;;;;;;;6158683;23;20452;-71
2022/09/18 04:17:49;;;;;;;9.57;1.05;;;;;;;;;;6159142;23;20953;-72
2022/09/18 04:20:16;;;;;;;12.98;1.60;;;;;;;;;;6159114;23;20479;-71
2022/09/18 04:22:42;;;;;;;5.53;1.00;;;;;;;;;;6158853;23;20030;-72
2022/09/18 04:25:08;;;;;;;6.40;1.10;;;;;;;;;;6157746;23;20037;-71
2022/09/18 04:27:35;;;;;;;7.68;1.20;;;;;;;;;;6159534;23;20030;-71
2022/09/18 04:30:02;;;;;;;3.00;0.80;;;;;;;;;;6158093;23;20033;-72
2022/09/18 04:32:28;;;;;;;7.15;1.20;;;;;;;;;;6159923;23;20026;-73
2022/09/18 04:34:54;;;;;;;6.00;1.65;;;;;;;;;;6159001;23;20081;-73
2022/09/18 04:37:21;;;;;;;4.78;1.05;;;;;;;;;;6159286;23;20025;-72
2022/09/18 04:39:47;;;;;;;7.07;1.10;;;;;;;;;;6159200;23;20081;-74
2022/09/18 04:42:14;;;;;;;2.83;0.90;;;;;;;;;;6157601;23;20029;-74
2022/09/18 04:44:40;;;;;;;7.07;2.75;;;;;;;;;;6158571;23;20033;-74
2022/09/18 04:47:06;;;;;;;3.88;1.17;;;;;;;;;;6159496;23;20534;-74
2022/09/18 04:49:32;;;;;;;4.35;1.08;;;;;;;;;;6159260;23;20033;-74
2022/09/18 04:51:59;;;;;;;6.97;1.40;;;;;;;;;;6159644;23;20034;-73
2022/09/18 04:54:25;;;;;;;5.63;1.17;;;;;;;;;;6160166;23;20488;-74
2022/09/18 04:56:51;;;;;;;5.28;0.95;;;;;;;;;;6159718;23;20062;-74
2022/09/18 04:59:17;;;;;;;7.95;1.20;;;;;;;;;;6159036;23;20025;-74
2022/09/18 05:01:44;;;;;;;3.17;1.15;;;;;;;;;;6159445;23;20034;-75
2022/09/18 05:04:10;;;;;;;8.55;1.20;;;;;;;;;;6159712;23;20026;-75
2022/09/18 05:06:36;;;;;;;4.03;1.15;;;;;;;;;;6159628;23;20030;-74
2022/09/18 05:09:02;;;;;;;5.03;1.05;;;;;;;;;;6159397;23;20030;-75
2022/09/18 05:11:29;;;;;;;5.43;1.80;;;;;;;;;;6159719;23;20030;-76
2022/09/18 05:13:55;;;;;;;3.25;1.02;;;;;;;;;;6159421;23;20519;-75
2022/09/18 05:16:23;;;;;;;3.10;0.88;;;;;;;;;;6160372;23;20053;-75
2022/09/18 05:18:50;;;;;;;5.10;1.00;;;;;;;;;;6159384;23;20026;-75
2022/09/18 05:21:16;;;;;;;2.70;0.70;;;;;;;;;;6159543;23;20089;-75
2022/09/18 05:23:44;;;;;;;4.40;1.60;;;;;;;;;;6159135;23;20487;-74
2022/09/18 05:26:10;;;;;;;4.60;1.27;;;;;;;;;;6159496;23;20030;-75
2022/09/18 05:28:36;;;;;;;4.95;0.90;;;;;;;;;;6159339;23;20447;-74
2022/09/18 05:31:03;;;;;;;4.32;0.95;;;;;;;;;;6159479;23;20026;-74
2022/09/18 05:33:29;;;;;;;6.13;1.42;;;;;;;;;;6159215;23;20388;-76
2022/09/18 05:35:56;;;;;;;5.25;0.82;;;;;;;;;;6159295;23;20034;-74
2022/09/18 05:38:23;;;;;;;3.58;0.80;;;;;;;;;;6159418;23;20033;-75
2022/09/18 05:40:49;;;;;;;3.40;1.00;;;;;;;;;;6158928;23;20030;-74
2022/09/18 05:43:16;;;;;;;2.05;0.90;;;;;;;;;;6158751;23;20081;-74
2022/09/18 05:45:42;;;;;;;5.03;0.95;;;;;;;;;;6159403;23;20033;-72
2022/09/18 05:48:11;;;;;;;5.05;1.00;;;;;;;;;;6158846;23;20030;-73
2022/09/18 05:50:37;;;;;;;5.90;1.10;;;;;;;;;;6159077;23;20507;-74
2022/09/18 05:53:05;;;;;;;5.65;1.65;;;;;;;;;;6158579;23;20085;-73
2022/09/18 05:55:32;;;;;;;3.55;1.77;;;;;;;;;;6158964;23;20103;-71
2022/09/18 05:58:00;;;;;;;4.95;1.10;;;;;;;;;;6159877;23;20037;-71
2022/09/18 06:00:27;;;;;;;2.80;0.90;;;;;;;;;;6157417;23;20096;-72
2022/09/18 06:02:55;;;;;;;5.40;0.90;;;;;;;;;;6159141;23;20026;-71
2022/09/18 06:05:22;;;;;;;6.10;1.50;;;;;;;;;;6159916;23;20073;-71
2022/09/18 06:07:48;;;;;;;5.35;0.93;;;;;;;;;;6159281;23;20452;-73
2022/09/18 06:10:15;;;;;;;1.33;0.70;;;;;;;;;;6158976;23;20464;-74
2022/09/18 06:12:41;;;;;;;5.68;0.88;;;;;;;;;;6157769;23;20026;-73
2022/09/18 06:15:08;;;;;;;3.67;0.70;;;;;;;;;;6159450;23;20033;-74
2022/09/18 06:17:34;;;;;;;4.85;0.85;;;;;;;;;;6159588;23;20022;-74
2022/09/18 06:20:01;;;;;;;7.13;1.23;;;;;;;;;;6159616;23;20030;-74
2022/09/18 06:22:27;;;;;;;3.42;1.10;;;;;;;;;;6159861;23;20033;-73
2022/09/18 06:24:53;;;;;;;5.97;1.02;;;;;;;;;;6159559;23;20026;-73
2022/09/18 06:27:19;;;;;;;4.05;0.77;;;;;;;;;;6159877;23;20089;-74
2022/09/18 06:29:46;;;;;;;5.78;1.42;;;;;;;;;;6159164;23;20030;-74
2022/09/18 06:32:12;;;;;;;1.52;1.10;;;;;;;;;;6160017;23;20037;-73
2022/09/18 06:34:38;;;;;;;8.48;1.10;;;;;;;;;;6158529;23;20038;-76
2022/09/18 06:37:07;;;;;;;1.75;0.68;;;;;;;;;;6159501;23;20072;-75
2022/09/18 06:39:34;;;;;;;6.45;0.90;;;;;;;;;;6160074;23;20089;-75
2022/09/18 06:42:00;;;;;;;5.25;1.15;;;;;;;;;;6160848;23;20034;-75
2022/09/18 06:44:26;;;;;;;5.90;0.82;;;;;;;;;;6160257;23;20576;-73
2022/09/18 06:46:53;;;;;;;2.88;0.95;;;;;;;;;;6159389;23;20499;-74
2022/09/18 06:49:19;;;;;;;4.57;1.00;;;;;;;;;;6160266;23;20022;-74
2022/09/18 06:51:47;;;;;;;8.73;1.83;;;;;;;;;;6160154;23;20033;-75
2022/09/18 06:54:14;;;;;;;3.78;1.13;;;;;;;;;;6159849;23;20459;-73
2022/09/18 06:56:40;;;;;;;3.70;1.00;;;;;;;;;;6160114;23;20519;-75
2022/09/18 06:59:06;;;;;;;1.65;0.82;;;;;;;;;;6160176;23;21005;-75
2022/09/18 07:01:33;;;;;;;7.40;1.20;;;;;;;;;;6159770;23;20476;-74
2022/09/18 07:03:59;;;;;;;4.47;1.15;;;;;;;;;;6160258;23;20030;-74
2022/09/18 07:06:25;;;;;;;4.47;0.95;;;;;;;;;;6160390;23;20030;-74
2022/09/18 07:08:52;;;;;;;1.70;0.73;;;;;;;;;;6159849;23;20077;-74
2022/09/18 07:11:18;;;;;;;4.95;1.08;;;;;;;;;;6159290;23;20033;-74
2022/09/18 07:13:46;;;;;;;2.38;0.98;;;;;;;;;;6159875;23;20029;-74
2022/09/18 07:16:12;;;;;;;6.20;1.00;;;;;;;;;;6160417;23;20499;-74
2022/09/18 07:18:39;;;;;;;6.07;1.48;;;;;;;;;;6160631;23;20058;-76
2022/09/18 07:21:05;;;;;;;3.10;0.85;;;;;;;;;;6160408;23;20039;-73
2022/09/18 07:23:32;;;;;;;4.35;1.30;;;;;;;;;;6160328;23;20073;-75
2022/09/18 07:25:59;;;;;;;3.20;0.90;;;;;;;;;;6160369;23;20033;-77
2022/09/18 07:28:25;;;;;;;3.47;1.10;;;;;;;;;;6160191;23;20037;-75
2022/09/18 07:30:52;;;;;;;2.55;0.70;;;;;;;;;;6158486;23;20030;-75
2022/09/18 07:33:18;;;;;;;7.22;1.20;;;;;;;;;;6160297;23;20030;-74
2022/09/18 07:35:44;;;;;;;4.22;1.00;;;;;;;;;;6160263;23;20029;-75
2022/09/18 07:38:11;;;;;;;3.88;0.82;;;;;;;;;;6159953;23;20030;-77
2022/09/18 07:40:40;;;;;;;6.05;1.23;;;;;;;;;;6160150;23;20037;-76
2022/09/18 07:43:07;;;;;;;5.85;1.30;;;;;;;;;;6160075;23;20033;-75
2022/09/18 07:45:34;;;;;;;5.32;1.00;;;;;;;;;;6160097;23;20026;-75
2022/09/18 07:48:04;;;;;;;2.08;0.85;;;;;;;;;;6160108;23;20062;-76
2022/09/18 07:50:31;;;;;;;2.95;1.20;;;;;;;;;;6159850;23;20026;-76
2022/09/18 07:52:59;;;;;;;2.03;0.80;;;;;;;;;;6160285;23;20037;-76
2022/09/18 07:55:25;;;;;;;5.43;1.27;;;;;;;;;;6160474;23;20472;-76
2022/09/18 07:57:53;;;;;;;2.83;0.95;;;;;;;;;;6160211;23;20025;-76
2022/09/18 08:00:19;;;;;;;3.85;1.00;;;;;;;;;;6159233;23;20030;-76
2022/09/18 08:02:46;;;;;;;2.70;1.42;;;;;;;;;;6159977;23;20085;-76
2022/09/18 08:05:12;;;;;;;6.25;1.35;;;;;;;;;;6159765;23;20482;-76
2022/09/18 08:07:39;;;;;;;4.07;1.00;;;;;;;;;;6159287;23;20033;-75
2022/09/18 08:10:06;;;;;;;2.60;0.77;;;;;;;;;;6160479;23;20104;-76
2022/09/18 08:12:32;;;;;;;8.57;1.20;;;;;;;;;;6159824;23;20041;-77
2022/09/18 08:14:58;;;;;;;5.53;1.40;;;;;;;;;;6160082;23;20428;-76
2022/09/18 08:17:25;;;;;;;4.45;1.38;;;;;;;;;;6160020;23;20525;-76
2022/09/18 08:19:52;;;;;;;4.93;1.13;;;;;;;;;;6159714;23;20034;-76
2022/09/18 08:22:18;;;;;;;4.53;1.42;;;;;;;;;;6159669;23;20085;-76
2022/09/18 08:24:44;;;;;;;3.90;1.02;;;;;;;;;;6159666;23;20073;-76
2022/09/18 08:27:11;;;;;;;3.25;1.35;;;;;;;;;;6159252;23;20034;-76
2022/09/18 08:29:37;;;;;;;5.65;2.35;;;;;;;;;;6159818;23;20030;-73
2022/09/18 08:32:04;;;;;;;6.28;1.35;;;;;;;;;;6158921;23;20065;-73
2022/09/18 08:34:35;;;;;;;8.13;1.40;;;;;;;;;;6158920;23;20506;-72
2022/09/18 08:37:01;;;;;;;5.32;0.95;;;;;;;;;;6158276;23;20982;-73
2022/09/18 08:39:27;;;;;;;1.63;0.75;;;;;;;;;;6158424;23;20542;-73
2022/09/18 08:42:02;;;;;;;1.83;0.98;;;;;;;;;;6158767;23;20551;-74
2022/09/18 08:44:29;;;;;;;4.95;1.05;;;;;;;;;;6158907;23;20030;-74
2022/09/18 08:46:59;;;;;;;3.22;0.98;;;;;;;;;;6158466;23;20033;-73
2022/09/18 08:49:31;;;;;;;1.77;0.70;;;;;;;;;;6157475;23;20113;-73
2022/09/18 08:52:15;;;;;;;4.63;0.90;;;;;;;;;;6159538;23;20071;-74
2022/09/18 08:54:41;;;;;;;6.18;1.27;;;;;;;;;;6159227;23;20030;-74
2022/09/18 08:57:17;;;;;;;3.55;1.20;;;;;;;;;;6159164;23;20029;-74
2022/09/18 08:59:48;;;;;;;5.35;1.63;;;;;;;;;;6159503;23;20089;-74
2022/09/18 09:02:14;;;;;;;6.45;1.00;;;;;;;;;;6159433;23;20026;-72
2022/09/18 09:04:41;;;;;;;3.55;1.13;;;;;;;;;;6156947;23;20070;-71
2022/09/18 09:07:13;;;;;;;4.35;1.08;;;;;;;;;;6158174;23;20030;-72
2022/09/18 09:10:06;;;;;;;7.78;2.15;;;;;;;;;;6158609;23;20033;-71
2022/09/18 09:12:33;;;;;;;2.90;0.77;;;;;;;;;;6124290;23;20070;-72
2022/09/18 09:15:05;;;;;;;5.00;1.42;;;;;;;;;;6158733;23;20085;-70
2022/09/18 09:17:41;;;;;;;2.55;0.90;;;;;;;;;;6157876;23;20103;-71
2022/09/18 09:20:13;;;;;;;5.07;1.27;;;;;;;;;;6158570;23;20033;-70
2022/09/18 09:22:46;;;;;;;3.35;1.13;;;;;;;;;;6158412;23;20081;-71
2022/09/18 09:25:12;;;;;;;2.88;1.05;;;;;;;;;;6157737;23;20097;-71
2022/09/18 09:27:43;;;;;;;3.08;0.73;;;;;;;;;;6157643;23;20467;-71
2022/09/18 09:30:17;;;;;;;5.85;1.05;;;;;;;;;;6158060;23;20093;-71
2022/09/18 09:32:49;;;;;;;3.00;0.85;;;;;;;;;;6159488;23;20030;-71
2022/09/18 09:35:15;;;;;;;3.00;0.90;;;;;;;;;;6159444;23;20038;-72
2022/09/18 09:37:43;;;;;;;3.20;0.90;;;;;;;;;;6159849;23;20451;-72
2022/09/18 09:40:21;;;;;;;3.83;0.98;;;;;;;;;;6159743;23;20085;-72
2022/09/18 09:43:02;;;;;;;4.03;0.73;;;;;;;;;;6159343;23;20420;-69
2022/09/18 09:45:32;;;;;;;3.33;1.23;;;;;;;;;;6159494;23;20029;-70
2022/09/18 09:48:04;;;;;;;4.55;1.15;;;;;;;;;;6159569;23;20471;-70
2022/09/18 09:50:43;;;;;;;4.10;1.00;;;;;;;;;;6159443;23;20061;-70
2022/09/18 09:53:10;;;;;;;4.38;1.52;;;;;;;;;;6159575;23;20029;-70
2022/09/18 09:55:43;;;;;;;2.30;0.75;;;;;;;;;;6159278;23;20034;-71
2022/09/18 09:58:12;;;;;;;2.28;1.23;;;;;;;;;;6158884;23;20030;-74
2022/09/18 10:00:46;;;;;;;5.82;1.45;;;;;;;;;;6158497;23;20034;-75
2022/09/18 10:03:13;;;;;;;8.40;1.63;;;;;;;;;;6160209;23;20030;-74
2022/09/18 10:05:43;;;;;;;4.15;1.13;;;;;;;;;;6159816;23;20030;-72
2022/09/18 10:08:14;;;;;;;5.50;1.02;;;;;;;;;;6159966;23;20077;-72
2022/09/18 10:10:56;;;;;;;3.75;1.10;;;;;;;;;;6160090;23;20026;-72
2022/09/18 10:13:26;;;;;;;7.32;1.65;;;;;;;;;;6160145;23;20061;-70
2022/09/18 10:15:56;;;;;;;4.20;0.80;;;;;;;;;;6159449;23;20026;-72
2022/09/18 10:18:38;;;;;;;5.65;0.73;;;;;;;;;;6159387;23;20026;-72
2022/09/18 10:21:16;;;;;;;4.57;1.20;;;;;;;;;;6158952;23;20412;-72
2022/09/18 10:23:54;;;;;;;7.68;1.02;;;;;;;;;;6159973;23;20034;-71
2022/09/18 10:26:41;;;;;;;3.60;0.82;;;;;;;;;;6159053;23;20045;-72
2022/09/18 10:29:08;;;;;;;3.70;1.05;;;;;;;;;;6158187;23;20408;-70
2022/09/18 10:31:48;;;;;;;7.93;2.22;;;;;;;;;;6158232;23;20030;-71
2022/09/18 10:34:31;;;;;;;3.35;1.20;;;;;;;;;;6159261;23;20033;-71
2022/09/18 10:36:57;;;;;;;5.88;0.93;;;;;;;;;;6159393;23;20815;-72
2022/09/18 10:39:26;;;;;;;3.88;1.77;;;;;;;;;;6159133;23;20030;-69
2022/09/18 10:41:57;;;;;;;8.40;1.23;;;;;;;;;;6158894;23;20456;-71
2022/09/18 10:44:29;;;;;;;6.25;1.15;;;;;;;;;;6159736;23;20037;-70
2022/09/18 10:47:04;;;;;;;6.10;1.73;;;;;;;;;;6157664;23;20030;-73
2022/09/18 10:49:33;;;;;;;7.70;1.70;;;;;;;;;;6157748;23;20053;-73
2022/09/18 10:52:18;;;;;;;3.35;0.70;;;;;;;;;;6158131;23;20030;-71
2022/09/18 10:54:56;;;;;;;8.33;1.20;;;;;;;;;;6159027;23;20026;-71
2022/09/18 10:57:25;;;;;;;5.05;1.02;;;;;;;;;;6158206;23;20222;-71
2022/09/18 10:59:51;;;;;;;4.50;1.00;;;;;;;;;;6157484;23;20084;-72
2022/09/18 11:02:19;;;;;;;3.88;1.00;;;;;;;;;;6159313;23;20037;-70
2022/09/18 11:04:48;;;;;;;3.70;0.70;;;;;;;;;;6158758;23;20109;-70
2022/09/18 11:07:14;;;;;;;2.05;0.82;;;;;;;;;;6159710;23;20359;-70
2022/09/18 11:09:40;;;;;;;2.65;0.95;;;;;;;;;;6158990;23;20037;-70
2022/09/18 11:12:13;;;;;;;4.93;0.73;;;;;;;;;;6159154;23;20033;-70
2022/09/18 11:14:45;;;;;;;1.38;0.80;;;;;;;;;;6159754;23;20062;-73
2022/09/18 11:17:26;;;;;;;4.88;1.10;;;;;;;;;;6160165;23;20041;-74
2022/09/18 11:19:54;;;;;;;3.00;0.90;;;;;;;;;;6158820;23;20026;-72
2022/09/18 11:22:31;;;;;;;3.22;0.90;;;;;;;;;;6159353;23;20172;-73
2022/09/18 11:25:13;;;;;;;2.15;0.55;;;;;;;;;;6159230;23;20025;-72
2022/09/18 11:27:44;;;;;;;2.80;0.57;;;;;;;;;;6159221;23;20171;-74
2022/09/18 11:30:30;;;;;;;1.73;0.80;;;;;;;;;;6159572;23;20080;-74
2022/09/18 11:33:03;;;;;;;5.75;1.13;;;;;;;;;;6159987;23;20026;-73
2022/09/18 11:35:31;;;;;;;3.63;0.88;;;;;;;;;;6160226;23;20282;-74
2022/09/18 11:37:59;;;;;;;3.00;0.73;;;;;;;;;;6159756;23;20444;-73
2022/09/18 11:40:41;;;;;;;2.70;0.55;;;;;;;;;;6160424;23;20030;-74
2022/09/18 11:43:27;;;;;;;2.72;0.55;;;;;;;;;;6158924;23;20486;-73
2022/09/18 11:45:57;;;;;;;2.55;0.73;;;;;;;;;;6159714;23;20030;-73
2022/09/18 11:48:26;;;;;;;1.85;0.73;;;;;;;;;;6159863;23;20026;-74
2022/09/18 11:51:00;;;;;;;2.17;0.70;;;;;;;;;;6160173;23;20058;-74
2022/09/18 11:53:28;;;;;;;3.60;1.42;;;;;;;;;;6160178;23;20030;-75
2022/09/18 11:56:24;;;;;;;1.40;0.75;;;;;;;;;;6159473;23;20034;-75
2022/09/18 11:59:10;;;;;;;5.03;1.20;;;;;;;;;;6139930;23;20159;-72
2022/09/18 12:01:39;;;;;;;2.25;0.90;;;;;;;;;;6159390;23;20077;-74
2022/09/18 12:04:29;;;;;;;2.38;0.93;;;;;;;;;;6159511;23;20105;-72
2022/09/18 12:07:20;;;;;;;1.52;0.90;;;;;;;;;;6147648;23;20034;-74
2022/09/18 12:10:23;;;;;;;4.57;0.90;;;;;;;;;;6159929;23;20025;-73
2022/09/18 12:13:08;;;;;;;1.90;0.60;;;;;;;;;;6159759;23;20034;-73
2022/09/18 12:15:36;;;;;;;2.33;0.90;;;;;;;;;;6161281;23;20034;-74
2022/09/18 12:18:07;;;;;;;5.10;0.80;;;;;;;;;;6160395;23;20085;-72
2022/09/18 12:20:36;;;;;;;2.50;1.00;;;;;;;;;;6160621;23;20074;-75
2022/09/18 12:23:02;;;;;;;2.55;0.88;;;;;;;;;;6160037;23;20519;-74
2022/09/18 12:25:38;;;;;;;0.80;0.63;;;;;;;;;;6158746;23;20033;-73
2022/09/18 12:28:04;;;;;;;;;;;;;;;;;;6160692;23;20034;-74
2022/09/18 12:30:42;;;;;;;5.80;1.00;;;;;;;;;;6158388;23;43788;-74
2022/09/18 12:33:15;;;;;;;0.75;0.75;;;;;;;;;;6158704;23;20026;-76
2022/09/18 12:35:55;;;;;;;3.40;0.70;;;;;;;;;;6159897;23;20097;-73
2022/09/18 12:38:21;;;;;;;3.22;0.90;;;;;;;;;;6160345;23;20511;-77
2022/09/18 12:41:00;;;;;;;1.30;0.73;;;;;;;;;;6160087;23;20041;-73
2022/09/18 12:43:33;;;;;;;1.73;0.80;;;;;;;;;;6160041;23;20077;-73
2022/09/18 12:46:06;;;;;;;4.40;1.05;;;;;;;;;;6159989;23;20033;-73
2022/09/18 12:48:41;;;;;;;2.83;0.80;;;;;;;;;;6160172;23;20034;-74
2022/09/18 12:51:13;;;;;;;3.58;0.70;;;;;;;;;;6160087;23;20029;-72
2022/09/18 12:53:59;;;;;;;3.25;0.90;;;;;;;;;;6158829;23;20080;-72
2022/09/18 12:56:41;;;;;;;2.10;0.75;;;;;;;;;;6159074;23;20089;-70
2022/09/18 12:59:26;;;;;;;4.95;2.03;;;;;;;;;;6159480;23;20064;-73
2022/09/18 13:02:16;;;;;;;3.13;1.08;;;;;;;;;;6159904;23;20034;-73
2022/09/18 13:05:03;;;;;;;4.57;0.82;;;;;;;;;;6147230;23;20078;-72
2022/09/18 13:07:42;;;;;;;1.80;0.98;;;;;;;;;;6159696;23;20025;-72
2022/09/18 13:10:20;;;;;;;4.00;1.10;;;;;;;;;;6159530;23;20969;-71
2022/09/18 13:13:05;;;;;;;2.88;1.02;;;;;;;;;;6159875;23;20030;-72
2022/09/18 13:15:41;;;;;;;2.85;0.90;;;;;;;;;;6159145;23;20033;-71
2022/09/18 13:18:16;;;;;;;7.57;1.00;;;;;;;;;;6159080;23;20089;-71
2022/09/18 13:20:43;;;;;;;4.65;2.17;;;;;;;;;;6158417;23;20030;-71
2022/09/18 13:23:15;;;;;;;5.22;1.10;;;;;;;;;;6157742;23;20030;-70
2022/09/18 13:25:42;;;;;;;2.05;0.75;;;;;;;;;;6158655;23;20995;-71
2022/09/18 13:28:11;;;;;;;4.30;1.25;;;;;;;;;;6157135;23;20481;-71
2022/09/18 13:30:37;;;;;;;7.43;1.25;;;;;;;;;;6157773;23;20033;-73
2022/09/18 13:33:04;;;;;;;3.55;1.40;;;;;;;;;;6159105;23;20408;-72
2022/09/18 13:35:32;;;;;;;4.38;1.15;;;;;;;;;;6158852;23;20025;-71
2022/09/18 13:38:03;;;;;;;6.45;1.08;;;;;;;;;;6157617;23;20105;-72
2022/09/18 13:40:35;;;;;;;4.90;1.10;;;;;;;;;;6158959;23;20026;-71
2022/09/18 13:43:23;;;;;;;2.35;1.25;;;;;;;;;;6158395;23;20456;-71
2022/09/18 13:45:50;;;;;;;1.92;0.85;;;;;;;;;;6158485;23;20026;-71
2022/09/18 13:48:17;;;;;;;1.67;0.68;;;;;;;;;;6157401;23;20026;-71
2022/09/18 13:51:04;;;;;;;1.40;0.70;;;;;;;;;;6158417;23;20034;-71
2022/09/18 13:53:32;;;;;;;11.85;1.00;;;;;;;;;;6158851;23;20026;-70
2022/09/18 13:55:58;;;;;;;0.85;0.40;;;;;;;;;;6158592;23;20030;-71
2022/09/18 13:58:29;;;;;;;5.25;0.82;;;;;;;;;;6158455;23;20037;-71
2022/09/18 14:01:00;;;;;;;3.55;0.80;;;;;;;;;;6159085;23;20519;-71
2022/09/18 14:03:26;;;;;;;2.75;0.65;;;;;;;;;;6158683;23;20966;-71
2022/09/18 14:05:53;;;;;;;3.25;0.93;;;;;;;;;;6157804;23;20030;-71
2022/09/18 14:08:23;;;;;;;0.88;0.50;;;;;;;;;;6158201;23;20077;-72
2022/09/18 14:11:08;;;;;;;3.42;0.80;;;;;;;;;;6158786;23;20507;-71
2022/09/18 14:13:53;;;;;;;3.70;0.93;;;;;;;;;;6157649;23;20383;-72
2022/09/18 14:16:22;;;;;;;2.50;0.63;;;;;;;;;;6158674;23;20077;-71
2022/09/18 14:19:21;;;;;;;3.28;0.57;;;;;;;;;;6157996;23;20089;-71
2022/09/18 14:21:48;;;;;;;2.53;0.90;;;;;;;;;;6110497;23;20022;-72
2022/09/18 14:24:19;;;;;;;3.53;0.98;;;;;;;;;;6159873;23;20022;-72
2022/09/18 14:26:46;;;;;;;4.53;1.00;;;;;;;;;;6159590;23;20029;-72
2022/09/18 14:29:15;;;;;;;1.05;0.57;;;;;;;;;;6159476;23;20030;-73
2022/09/18 14:31:48;;;;;;;2.38;0.88;;;;;;;;;;6159765;23;20061;-72
2022/09/18 14:34:14;;;;;;;3.25;0.82;;;;;;;;;;6160681;23;20097;-72
2022/09/18 14:36:44;;;;;;;1.33;0.70;;;;;;;;;;6159863;23;20034;-72
2022/09/18 14:39:23;;;;;;;5.68;1.00;;;;;;;;;;6159533;23;20093;-72
2022/09/18 14:41:51;;;;;;;2.45;0.95;;;;;;;;;;6159402;23;20037;-74
2022/09/18 14:44:18;;;;;;;1.13;0.70;;;;;;;;;;6160103;23;20030;-72
2022/09/18 14:46:55;;;;;;;5.63;1.20;;;;;;;;;;6159936;23;20033;-72
2022/09/18 14:49:25;;;;;;;3.80;0.70;;;;;;;;;;6159385;23;20025;-73
2022/09/18 14:51:51;;;;;;;3.70;0.82;;;;;;;;;;6160162;23;20524;-72
2022/09/18 14:54:30;;;;;;;1.20;0.60;;;;;;;;;;6160403;23;20034;-72
2022/09/18 14:56:58;;;;;;;2.17;0.82;;;;;;;;;;6160131;23;20089;-73
2022/09/18 14:59:25;;;;;;;1.10;0.70;;;;;;;;;;6160270;23;20372;-73
2022/09/18 15:01:51;;;;;;;2.13;1.00;;;;;;;;;;6159366;23;20081;-71
2022/09/18 15:04:24;;;;;;;2.42;0.90;;;;;;;;;;6160021;23;20085;-71